Time,TemperatureF,DewpointF,PressureIn,WindDirection,WindDirectionDegrees,WindSpeedMPH,WindSpeedGustMPH,Humidity,HourlyPrecipIn,Conditions,Clouds,dailyrainin,SoftwareType,DateUTC
2013-09-17 00:02:00,47.7,40.1,29.15,SE,135,8.1,8.1,75,0.00,CLR,SCT,0.00,WeatherDisplay:10.37,2013-09-17 08:02:00,
2013-09-17 00:07:00,47.7,40.1,29.15,SSE,158,6.2,6.2,75,0.00,CLR,SCT,0.00,WeatherDisplay:10.37,2013-09-17 08:07:00,
2013-09-17 00:12:00,47.7,40.1,29.15,SE,135,6.9,6.9,75,0.00,CLR,SCT,0.00,WeatherDisplay:10.37,2013-09-17 08:12:00,
2013-09-17 00:17:00,47.7,40.1,29.15,ESE,112,9.2,9.2,75,0.00,CLR,SCT,0.00,WeatherDisplay:10.37,2013-09-17 08:17:00,
2013-09-17 00:22:00,47.7,40.1,29.15,SE,135,8.1,8.1,75,0.00,CLR,SCT,0.00,WeatherDisplay:10.37,2013-09-17 08:22:00,
2013-09-17 00:27:00,47.5,39.6,29.15,SSE,158,8.3,8.3,74,0.00,CLR,SCT,0.00,WeatherDisplay:10.37,2013-09-17 08:27:00,
2013-09-17 00:32:00,47.5,39.6,29.12,SE,135,6.9,6.9,74,0.00,CLR,SCT,0.00,WeatherDisplay:10.37,2013-09-17 08:32:00,
2013-09-17 00:37:00,47.3,39.4,29.12,SE,135,5.8,5.8,74,0.00,CLR,SCT,0.00,WeatherDisplay:10.37,2013-09-17 08:37:00,
2013-09-17 00:42:00,47.3,39.4,29.12,SE,135,6.9,6.9,74,0.00,CLR,SCT,0.00,WeatherDisplay:10.37,2013-09-17 08:42:00,
2013-09-17 00:47:00,47.1,39.6,29.12,SE,135,5.9,6.2,75,0.00,CLR,SCT,0.00,WeatherDisplay:10.37,2013-09-17 08:47:00,
2013-09-17 00:52:00,47.1,39.6,29.12,SE,135,9.2,9.2,75,0.00,CLR,SCT,0.00,WeatherDisplay:10.37,2013-09-17 08:52:00,
2013-09-17 00:57:00,46.9,39.4,29.12,SE,135,8.1,8.1,75,0.00,CLR,SCT,0.00,WeatherDisplay:10.37,2013-09-17 08:57:00,
2013-09-17 01:02:00,46.8,39.3,29.12,SSE,158,5.9,5.9,75,0.00,CLR,SCT,0.00,WeatherDisplay:10.37,2013-09-17 09:02:00,
2013-09-17 01:07:00,46.8,39.3,29.12,SE,135,5.8,5.8,75,0.00,CLR,SCT,0.00,WeatherDisplay:10.37,2013-09-17 09:07:00,
2013-09-17 01:12:00,46.8,39.3,29.12,SE,135,6.9,6.9,75,0.00,CLR,SCT,0.00,WeatherDisplay:10.37,2013-09-17 09:12:00,
2013-09-17 01:17:00,46.6,39.1,29.12,SE,135,4.6,5.4,75,0.00,CLR,SCT,0.00,WeatherDisplay:10.37,2013-09-17 09:17:00,
2013-09-17 01:22:00,46.4,38.9,29.12,SE,135,5.8,5.8,75,0.00,CLR,SCT,0.00,WeatherDisplay:10.37,2013-09-17 09:22:00,
2013-09-17 01:27:00,46.4,38.9,29.12,SE,135,5.9,5.9,75,0.00,CLR,SCT,0.00,WeatherDisplay:10.37,2013-09-17 09:27:00,
2013-09-17 01:32:00,46.2,39.1,29.12,SSE,158,5.9,5.9,76,0.00,CLR,SCT,0.00,WeatherDisplay:10.37,2013-09-17 09:32:00,
2013-09-17 01:37:00,46.0,38.9,29.12,SSE,158,4.6,4.6,76,0.00,CLR,SCT,0.00,WeatherDisplay:10.37,2013-09-17 09:37:00,
2013-09-17 01:42:00,46.0,38.9,29.12,SE,135,4.6,4.6,76,0.00,CLR,SCT,0.00,WeatherDisplay:10.37,2013-09-17 09:42:00,
2013-09-17 01:47:00,45.9,38.7,29.12,SE,135,5.8,5.8,76,0.00,CLR,SCT,0.00,WeatherDisplay:10.37,2013-09-17 09:47:00,
2013-09-17 01:52:00,45.9,39.1,29.12,SSE,158,4.6,4.6,77,0.00,CLR,SCT,0.00,WeatherDisplay:10.37,2013-09-17 09:52:00,
2013-09-17 01:57:00,46.0,39.2,29.12,SE,135,3.1,3.1,77,0.00,CLR,SCT,0.00,WeatherDisplay:10.37,2013-09-17 09:57:00,
2013-09-17 02:02:00,46.0,38.9,29.12,SE,135,4.6,4.6,76,0.00,CLR,SCT,0.00,WeatherDisplay:10.37,2013-09-17 10:02:00,
2013-09-17 02:07:00,46.0,38.9,29.12,SSE,158,5.8,5.8,76,0.00,CLR,SCT,0.00,WeatherDisplay:10.37,2013-09-17 10:07:00,
2013-09-17 02:12:00,46.2,38.7,29.12,SSE,158,5.8,5.8,75,0.00,CLR,SCT,0.00,WeatherDisplay:10.37,2013-09-17 10:12:00,
2013-09-17 02:17:00,46.2,38.7,29.12,SSE,158,4.6,4.6,75,0.00,CLR,SCT,0.00,WeatherDisplay:10.37,2013-09-17 10:17:00,
2013-09-17 02:22:00,46.0,38.6,29.12,SE,135,5.8,5.8,75,0.00,CLR,SCT,0.00,WeatherDisplay:10.37,2013-09-17 10:22:00,
2013-09-17 02:27:00,46.0,38.6,29.12,SE,135,5.8,5.8,75,0.00,CLR,SCT,0.00,WeatherDisplay:10.37,2013-09-17 10:27:00,
2013-09-17 02:32:00,46.0,38.6,29.12,ESE,112,4.9,4.9,75,0.00,CLR,SCT,0.00,WeatherDisplay:10.37,2013-09-17 10:32:00,
2013-09-17 02:37:00,46.0,38.6,29.12,SE,135,5.8,5.8,75,0.00,CLR,SCT,0.00,WeatherDisplay:10.37,2013-09-17 10:37:00,
2013-09-17 02:42:00,46.0,38.6,29.12,SE,135,5.8,5.8,75,0.00,CLR,SCT,0.00,WeatherDisplay:10.37,2013-09-17 10:42:00,
2013-09-17 02:47:00,46.0,38.6,29.12,SE,135,5.8,5.8,75,0.00,CLR,SCT,0.00,WeatherDisplay:10.37,2013-09-17 10:47:00,
2013-09-17 02:52:00,46.2,38.7,29.12,SE,135,4.6,4.6,75,0.00,CLR,SCT,0.00,WeatherDisplay:10.37,2013-09-17 10:52:00,
2013-09-17 02:57:00,46.2,38.7,29.12,SSE,158,5.8,5.8,75,0.00,CLR,SCT,0.00,WeatherDisplay:10.37,2013-09-17 10:57:00,
2013-09-17 03:02:00,46.2,38.7,29.12,SE,135,4.0,4.0,75,0.00,CLR,SCT,0.00,WeatherDisplay:10.37,2013-09-17 11:02:00,
2013-09-17 03:07:00,46.2,38.7,29.12,SSE,158,4.9,4.9,75,0.00,CLR,SCT,0.00,WeatherDisplay:10.37,2013-09-17 11:07:00,
2013-09-17 03:12:00,46.2,38.7,29.12,SE,135,5.8,5.8,75,0.00,CLR,SCT,0.00,WeatherDisplay:10.37,2013-09-17 11:12:00,
2013-09-17 03:17:00,46.2,38.4,29.12,SE,135,4.6,4.6,74,0.00,CLR,SCT,0.00,WeatherDisplay:10.37,2013-09-17 11:17:00,
2013-09-17 03:22:00,46.0,38.6,29.12,SE,135,4.0,4.0,75,0.00,CLR,SCT,0.00,WeatherDisplay:10.37,2013-09-17 11:22:00,
2013-09-17 03:27:00,46.2,38.7,29.12,SE,135,4.0,4.0,75,0.00,CLR,SCT,0.00,WeatherDisplay:10.37,2013-09-17 11:27:00,
2013-09-17 03:32:00,46.2,38.7,29.12,SE,135,4.6,4.6,75,0.00,CLR,SCT,0.00,WeatherDisplay:10.37,2013-09-17 11:32:00,
2013-09-17 03:37:00,46.2,38.4,29.12,SE,135,4.6,4.6,74,0.00,CLR,SCT,0.00,WeatherDisplay:10.37,2013-09-17 11:37:00,
2013-09-17 03:42:00,46.2,38.4,29.12,SSE,158,4.6,4.6,74,0.00,CLR,SCT,0.00,WeatherDisplay:10.37,2013-09-17 11:42:00,
2013-09-17 03:47:00,46.2,38.4,29.09,SE,135,4.0,4.0,74,0.00,CLR,SCT,0.00,WeatherDisplay:10.37,2013-09-17 11:47:00,
2013-09-17 03:52:00,46.4,38.2,29.09,SE,135,4.6,4.6,73,0.00,CLR,SCT,0.00,WeatherDisplay:10.37,2013-09-17 11:52:00,
2013-09-17 03:57:00,46.2,38.4,29.09,SE,135,4.9,4.9,74,0.00,CLR,SCT,0.00,WeatherDisplay:10.37,2013-09-17 11:57:00,
2013-09-17 04:02:00,46.4,38.2,29.09,SE,135,4.6,4.6,73,0.00,CLR,SCT,0.00,WeatherDisplay:10.37,2013-09-17 12:02:00,
2013-09-17 04:07:00,46.4,38.2,29.09,SE,135,4.9,4.9,73,0.00,CLR,SCT,0.00,WeatherDisplay:10.37,2013-09-17 12:07:00,
2013-09-17 04:12:00,46.4,38.2,29.09,SE,135,4.6,4.6,73,0.00,CLR,SCT,0.00,WeatherDisplay:10.37,2013-09-17 12:12:00,
2013-09-17 04:17:00,46.6,38.4,29.09,SE,135,4.6,4.6,73,0.00,CLR,SCT,0.00,WeatherDisplay:10.37,2013-09-17 12:17:00,
2013-09-17 04:22:00,46.6,38.4,29.09,SE,135,4.6,4.6,73,0.00,CLR,SCT,0.00,WeatherDisplay:10.37,2013-09-17 12:22:00,
2013-09-17 04:27:00,46.6,38.0,29.09,SE,135,4.6,4.6,72,0.00,CLR,SCT,0.00,WeatherDisplay:10.37,2013-09-17 12:27:00,
2013-09-17 04:32:00,46.4,38.2,29.09,SE,135,4.0,4.0,73,0.00,CLR,SCT,0.00,WeatherDisplay:10.37,2013-09-17 12:32:00,
2013-09-17 04:37:00,46.6,38.0,29.09,SE,135,4.6,4.6,72,0.00,CLR,SCT,0.00,WeatherDisplay:10.37,2013-09-17 12:37:00,
2013-09-17 04:42:00,46.4,38.2,29.09,SSE,158,3.6,3.6,73,0.00,CLR,SCT,0.00,WeatherDisplay:10.37,2013-09-17 12:42:00,
2013-09-17 04:47:00,46.4,38.2,29.09,SE,135,5.8,5.8,73,0.00,CLR,SCT,0.00,WeatherDisplay:10.37,2013-09-17 12:47:00,
2013-09-17 04:52:00,46.4,38.2,29.09,SE,135,3.5,3.5,73,0.00,CLR,SCT,0.00,WeatherDisplay:10.37,2013-09-17 12:52:00,
2013-09-17 04:57:00,46.6,38.4,29.09,SE,135,4.6,4.6,73,0.00,CLR,SCT,0.00,WeatherDisplay:10.37,2013-09-17 12:57:00,
2013-09-17 05:02:00,46.6,38.4,29.09,SE,135,3.5,3.5,73,0.00,CLR,SCT,0.00,WeatherDisplay:10.37,2013-09-17 13:02:00,
2013-09-17 05:07:00,46.4,38.2,29.09,SE,135,3.5,3.5,73,0.00,CLR,SCT,0.00,WeatherDisplay:10.37,2013-09-17 13:07:00,
2013-09-17 05:12:00,46.6,38.4,29.09,SE,135,4.6,4.6,73,0.00,CLR,SCT,0.00,WeatherDisplay:10.37,2013-09-17 13:12:00,
2013-09-17 05:17:00,46.6,38.4,29.09,SE,135,4.6,4.6,73,0.00,CLR,SCT,0.00,WeatherDisplay:10.37,2013-09-17 13:17:00,
2013-09-17 05:22:00,46.6,38.0,29.09,SE,135,3.6,3.6,72,0.00,CLR,SCT,0.00,WeatherDisplay:10.37,2013-09-17 13:22:00,
2013-09-17 05:27:00,46.6,38.0,29.09,SE,135,4.6,4.6,72,0.00,CLR,SCT,0.00,WeatherDisplay:10.37,2013-09-17 13:27:00,
2013-09-17 05:32:00,46.8,38.2,29.09,SE,135,3.6,3.6,72,0.00,CLR,SCT,0.00,WeatherDisplay:10.37,2013-09-17 13:32:00,
2013-09-17 05:38:00,46.6,38.0,29.09,SE,135,4.6,4.6,72,0.00,CLR,SCT,0.00,WeatherDisplay:10.37,2013-09-17 13:38:00,
2013-09-17 05:43:00,46.6,38.0,29.09,SE,135,4.6,4.6,72,0.00,CLR,SCT,0.00,WeatherDisplay:10.37,2013-09-17 13:43:00,
2013-09-17 05:48:00,46.4,38.2,29.09,SE,135,3.5,3.5,73,0.00,CLR,SCT,0.00,WeatherDisplay:10.37,2013-09-17 13:48:00,
2013-09-17 05:53:00,46.4,38.2,29.09,SE,135,3.6,3.6,73,0.00,CLR,SCT,0.00,WeatherDisplay:10.37,2013-09-17 13:53:00,
2013-09-17 05:58:00,46.2,38.0,29.09,SE,135,3.6,3.6,73,0.00,CLR,SCT,0.00,WeatherDisplay:10.37,2013-09-17 13:58:00,
2013-09-17 06:03:00,46.4,38.2,29.09,SE,135,4.6,4.6,73,0.00,CLR,SCT,0.00,WeatherDisplay:10.37,2013-09-17 14:03:00,
2013-09-17 06:08:00,46.4,38.2,29.09,SE,135,4.6,4.6,73,0.00,CLR,SCT,0.00,WeatherDisplay:10.37,2013-09-17 14:08:00,
2013-09-17 06:13:00,46.4,38.2,29.09,SE,135,4.6,4.6,73,0.00,CLR,SCT,0.00,WeatherDisplay:10.37,2013-09-17 14:13:00,
2013-09-17 06:18:00,46.6,38.0,29.09,SE,135,4.6,4.6,72,0.00,CLR,SCT,0.00,WeatherDisplay:10.37,2013-09-17 14:18:00,
2013-09-17 06:23:00,46.4,37.9,29.09,SE,135,3.6,3.6,72,0.00,CLR,SCT,0.00,WeatherDisplay:10.37,2013-09-17 14:23:00,
2013-09-17 06:28:00,46.4,38.2,29.09,SE,135,4.6,4.6,73,0.00,CLR,SCT,0.00,WeatherDisplay:10.37,2013-09-17 14:28:00,
2013-09-17 06:33:00,46.4,38.2,29.09,SE,135,3.5,3.5,73,0.00,CLR,SCT,0.00,WeatherDisplay:10.37,2013-09-17 14:33:00,
2013-09-17 06:38:00,46.4,38.2,29.09,SE,135,4.6,4.6,73,0.00,CLR,SCT,0.00,WeatherDisplay:10.37,2013-09-17 14:38:00,
2013-09-17 06:43:00,46.4,38.2,29.09,SE,135,3.6,3.6,73,0.00,CLR,SCT,0.00,WeatherDisplay:10.37,2013-09-17 14:43:00,
2013-09-17 06:48:00,46.4,38.2,29.09,SE,135,3.5,3.5,73,0.00,CLR,SCT,0.00,WeatherDisplay:10.37,2013-09-17 14:48:00,
2013-09-17 06:53:00,46.2,38.0,29.09,SE,135,4.6,4.6,73,0.00,CLR,SCT,0.00,WeatherDisplay:10.37,2013-09-17 14:53:00,
2013-09-17 06:58:00,46.4,38.2,29.09,SE,135,3.5,3.5,73,0.00,CLR,SCT,0.00,WeatherDisplay:10.37,2013-09-17 14:58:00,